Freeport, Minnesota
Current Conditions -  °F | °C
As of 3:53 AM on Saturday 01 Nov 2014 (Local Time) from KD39 Reporting Station
Clear Clear  
Wind Chill: 15°   Ceiling: Unl
Heat Index: 23°   Visibility: 10mi
Dew Point: 17°   Wind: 7mph
Humidity: 76%   Direction: 150°SSE
Pressure: 30.39"   Gusts: NA
Location:  45.66°N, 94.69°W
Report Text: KD39 010853Z AUTO 15006KT 10SM CLR M05/M08 A3039 RMK AO2 T10481085
Loading
Personal Weather Stations






























Interactive Weather Map
Tropical Storm Tracking
New forecast layout! Learn more

10-Day Weather Forecast

Advertisements
Track Severe Weather on mobile